Hauptseite
METAR-TAF:

METAR-TAF

Flughäfen :

Southampton, England

Southampton International Airport

Breite: 50-54N, Länge: 001-24W, Höhe: 9 m

Beobachtung

Neuester Wetterbericht von vor 14 Minuten, um 09:50 UTC
Wind 7 kt aus Ost/Nordost, variierte zwischen Nord und Ost/Südost
Temperatur 1°C
Luftfeuchtigkeit 55%
Luftdruck 1026 hPa
Sichtweite 10 km oder mehr
keine Wolken unter 1500 m und keine Kumulonimbus oder Gewitterwolken

METAR: EGHI 250950Z 06007KT 010V120 CAVOK 01/M07 Q1026

Zeit: 10:04 (10:04 UTC)

Prognose

Neuester Wetterbericht von vor 2 Stunden und 1 Minuten, um 08:03 UTC
Gültige Prognose vom 25 um 09 UTC bis 25 um 18 UTC
Wind 9 kt aus Ost/Nordost
Sichtweite 10 km oder mehr
Leicht bewölkt in der Höhe von 2500 ft

TAF: EGHI 250803Z 2509/2518 07009KT 9999 FEW025

Wetterbeobachtungen und Prognosen von mehr als 4000 Flughäfen (METAR und TAF Bericht).

Die verfügbaren Stationen werden durch gelbe und rote Markierungen auf der Karte dargestellt.

Führen Sie die Maus auf sie, um den Namen der Station zu sehen.

Darauf klicken, um die Beobachtung von Wetterbeobachtungen und Prognosen zu sehen.

Um die Karte zu ändern : klicken Sie auf den grünen Tasten mit einem schwarzen Kreuz Zum Vergrößern, auf den grünen Button mit einem Gedankenstrich zu verkleinern, oder auf die grünen Pfeile für benachbarte Karten.


METAR-TAF: